Time;durP1;ratioP1;P1;durP2;ratioP2;P2;SDS_P1;SDS_P2;PMS_P1;PMS_P2;Temp;Humidity;BMP_temperature;BMP_pressure;BME280_temperature;BME280_humidity;BME280_pressure;Samples;Min_cycle;Max_cycle;Signal;HPM_P1;HPM_P2
2022/07/22 00:02:25;;;;;;;21.63;17.40;;;;;;;;;;5076165;28;20478;-74
2022/07/22 00:04:52;;;;;;;20.17;17.50;;;;;;;;;;5076158;28;20454;-74
2022/07/22 00:07:19;;;;;;;23.93;18.47;;;;;;;;;;5076176;28;20462;-74
2022/07/22 00:09:46;;;;;;;19.90;16.67;;;;;;;;;;5076310;28;20491;-74
2022/07/22 00:12:13;;;;;;;22.47;19.07;;;;;;;;;;5076159;28;20475;-74
2022/07/22 00:14:40;;;;;;;19.57;17.57;;;;;;;;;;5076052;28;20455;-74
2022/07/22 00:17:07;;;;;;;24.87;18.87;;;;;;;;;;5076117;28;20941;-74
2022/07/22 00:19:37;;;;;;;26.80;21.53;;;;;;;;;;5076076;28;20451;-74
2022/07/22 00:22:04;;;;;;;21.97;18.63;;;;;;;;;;5075906;28;20529;-74
2022/07/22 00:24:31;;;;;;;24.33;17.83;;;;;;;;;;5075811;28;20455;-74
2022/07/22 00:26:58;;;;;;;22.30;17.90;;;;;;;;;;5075950;28;20447;-74
2022/07/22 00:29:25;;;;;;;22.90;19.17;;;;;;;;;;5075727;28;20455;-74
2022/07/22 00:31:52;;;;;;;20.40;18.23;;;;;;;;;;5075310;28;20475;-74
2022/07/22 00:34:19;;;;;;;20.03;18.03;;;;;;;;;;5075590;28;20967;-74
2022/07/22 00:36:48;;;;;;;19.87;17.40;;;;;;;;;;5075807;28;20451;-74
2022/07/22 00:39:15;;;;;;;17.93;15.90;;;;;;;;;;5075654;28;20455;-74
2022/07/22 00:41:42;;;;;;;18.47;16.50;;;;;;;;;;5075688;28;21030;-74
2022/07/22 00:44:10;;;;;;;25.53;17.77;;;;;;;;;;5075237;28;20467;-74
2022/07/22 00:46:37;;;;;;;17.80;15.73;;;;;;;;;;5075685;28;20455;-74
2022/07/22 00:49:05;;;;;;;20.47;17.97;;;;;;;;;;5075464;28;20443;-74
2022/07/22 00:51:32;;;;;;;21.13;18.83;;;;;;;;;;5075193;28;20483;-74
2022/07/22 00:54:01;;;;;;;24.20;17.73;;;;;;;;;;5075377;28;20976;-74
2022/07/22 00:56:29;;;;;;;22.80;20.23;;;;;;;;;;5075457;28;20463;-74
2022/07/22 00:58:57;;;;;;;19.77;17.67;;;;;;;;;;5075370;28;20447;-74
2022/07/22 01:01:24;;;;;;;21.67;18.47;;;;;;;;;;5075145;28;20452;-74
2022/07/22 01:03:52;;;;;;;20.67;16.90;;;;;;;;;;5075189;28;20837;-74
2022/07/22 01:06:19;;;;;;;19.97;17.40;;;;;;;;;;5075552;28;20463;-74
2022/07/22 01:08:46;;;;;;;17.10;15.30;;;;;;;;;;5075135;28;20451;-74
2022/07/22 01:11:15;;;;;;;20.10;17.50;;;;;;;;;;5074943;28;20483;-74
2022/07/22 01:13:43;;;;;;;18.77;16.77;;;;;;;;;;5074959;28;20451;-74
2022/07/22 01:16:10;;;;;;;19.13;17.07;;;;;;;;;;5074880;28;20491;-74
2022/07/22 01:18:38;;;;;;;18.37;16.43;;;;;;;;;;5074944;28;20459;-74
2022/07/22 01:21:07;;;;;;;20.27;17.80;;;;;;;;;;5074987;28;20467;-74
2022/07/22 01:23:34;;;;;;;17.47;15.60;;;;;;;;;;5074553;28;20468;-74
2022/07/22 01:26:01;;;;;;;20.53;17.57;;;;;;;;;;5074916;28;20461;-74
2022/07/22 01:28:29;;;;;;;18.80;16.80;;;;;;;;;;5074724;28;20456;-74
2022/07/22 01:30:56;;;;;;;19.47;17.37;;;;;;;;;;5074717;28;20506;-74
2022/07/22 01:33:23;;;;;;;21.70;17.13;;;;;;;;;;5074042;28;20479;-74
2022/07/22 01:35:51;;;;;;;20.77;18.60;;;;;;;;;;5074553;28;20472;-74
2022/07/22 01:38:19;;;;;;;19.30;17.00;;;;;;;;;;5074579;28;20945;-74
2022/07/22 01:40:47;;;;;;;19.63;17.67;;;;;;;;;;5074666;28;20448;-74
2022/07/22 01:43:17;;;;;;;19.90;17.77;;;;;;;;;;5074193;28;20856;-74
2022/07/22 01:45:45;;;;;;;21.30;19.00;;;;;;;;;;5074324;28;20452;-74
2022/07/22 01:48:12;;;;;;;23.30;18.30;;;;;;;;;;5073890;28;20953;-74
2022/07/22 01:50:40;;;;;;;20.53;17.17;;;;;;;;;;5074434;28;20522;-74
2022/07/22 01:53:07;;;;;;;22.33;18.60;;;;;;;;;;5074195;28;20483;-74
2022/07/22 01:55:35;;;;;;;21.13;19.03;;;;;;;;;;5074023;28;20860;-74
2022/07/22 01:58:03;;;;;;;25.13;20.33;;;;;;;;;;5074257;28;20553;-74
2022/07/22 02:00:31;;;;;;;23.10;20.67;;;;;;;;;;5074075;28;20451;-74
2022/07/22 02:02:58;;;;;;;20.73;18.57;;;;;;;;;;5074100;28;20478;-74
2022/07/22 02:05:25;;;;;;;22.80;20.40;;;;;;;;;;5073777;28;20458;-74
2022/07/22 02:07:52;;;;;;;24.70;21.50;;;;;;;;;;5074080;28;20451;-74
2022/07/22 02:10:19;;;;;;;24.33;21.40;;;;;;;;;;5073931;28;20484;-74
2022/07/22 02:12:48;;;;;;;24.07;21.07;;;;;;;;;;5073821;28;20517;-74
2022/07/22 02:15:15;;;;;;;23.80;20.87;;;;;;;;;;5073607;28;20963;-74
2022/07/22 02:17:42;;;;;;;26.83;20.40;;;;;;;;;;5073918;28;20827;-74
2022/07/22 02:20:09;;;;;;;32.07;22.50;;;;;;;;;;5073948;28;20456;-74
2022/07/22 02:22:36;;;;;;;23.67;20.83;;;;;;;;;;5073825;28;20483;-74
2022/07/22 02:25:04;;;;;;;26.77;22.60;;;;;;;;;;5073499;28;20448;-74
2022/07/22 02:27:31;;;;;;;27.43;22.27;;;;;;;;;;5073613;28;20455;-74
2022/07/22 02:30:00;;;;;;;25.10;21.43;;;;;;;;;;5073701;28;20459;-74
2022/07/22 02:32:27;;;;;;;23.80;21.30;;;;;;;;;;5073561;28;20999;-74
2022/07/22 02:34:54;;;;;;;25.50;20.10;;;;;;;;;;5073685;28;20455;-74
2022/07/22 02:37:21;;;;;;;24.10;21.50;;;;;;;;;;5073455;28;20507;-74
2022/07/22 02:39:48;;;;;;;30.73;23.67;;;;;;;;;;5073400;28;20444;-74
2022/07/22 02:42:15;;;;;;;23.87;20.90;;;;;;;;;;5073075;28;21003;-74
2022/07/22 02:44:42;;;;;;;20.87;18.67;;;;;;;;;;5073283;28;20809;-73
2022/07/22 02:47:11;;;;;;;20.53;18.40;;;;;;;;;;5073351;28;20448;-74
2022/07/22 02:49:38;;;;;;;22.30;20.00;;;;;;;;;;5073307;28;20447;-73
2022/07/22 02:52:05;;;;;;;22.17;17.70;;;;;;;;;;5073014;28;20574;-74
2022/07/22 02:54:32;;;;;;;26.83;19.50;;;;;;;;;;5073147;28;20463;-74
2022/07/22 02:57:00;;;;;;;28.70;18.27;;;;;;;;;;5073335;28;20542;-74
2022/07/22 02:59:27;;;;;;;19.13;17.13;;;;;;;;;;5072759;28;20463;-74
2022/07/22 03:01:54;;;;;;;22.37;19.23;;;;;;;;;;5072674;28;20480;-74
2022/07/22 03:04:22;;;;;;;21.93;19.30;;;;;;;;;;5072916;28;20452;-74
2022/07/22 03:06:49;;;;;;;22.20;19.90;;;;;;;;;;5073128;28;20455;-74
2022/07/22 03:09:16;;;;;;;26.73;22.37;;;;;;;;;;5072969;28;20463;-74
2022/07/22 03:11:43;;;;;;;25.10;20.37;;;;;;;;;;5072920;28;20502;-74
2022/07/22 03:14:11;;;;;;;26.77;21.87;;;;;;;;;;5072722;28;20454;-74
2022/07/22 03:16:38;;;;;;;24.50;21.83;;;;;;;;;;5072987;28;20448;-74
2022/07/22 03:19:05;;;;;;;26.03;23.23;;;;;;;;;;5073002;28;20930;-74
2022/07/22 03:21:34;;;;;;;25.40;22.40;;;;;;;;;;5072753;28;20452;-74
2022/07/22 03:24:01;;;;;;;28.03;24.40;;;;;;;;;;5072862;28;20945;-74
2022/07/22 03:26:28;;;;;;;35.37;25.53;;;;;;;;;;5072835;28;20823;-74
2022/07/22 03:28:55;;;;;;;32.43;26.00;;;;;;;;;;5072856;28;20452;-74
2022/07/22 03:31:22;;;;;;;30.30;24.93;;;;;;;;;;5072648;28;20487;-74
2022/07/22 03:33:49;;;;;;;31.07;26.07;;;;;;;;;;5072397;28;20953;-74
2022/07/22 03:36:16;;;;;;;31.73;25.60;;;;;;;;;;5072817;28;20451;-74
2022/07/22 03:38:44;;;;;;;31.03;23.60;;;;;;;;;;5072961;28;20443;-74
2022/07/22 03:41:12;;;;;;;34.80;27.47;;;;;;;;;;5072698;28;20469;-74
2022/07/22 03:43:39;;;;;;;30.93;25.50;;;;;;;;;;5072661;28;20849;-74
2022/07/22 03:46:06;;;;;;;30.37;24.57;;;;;;;;;;5072686;28;20461;-74
2022/07/22 03:48:33;;;;;;;27.97;24.30;;;;;;;;;;5072730;28;20451;-74
2022/07/22 03:51:00;;;;;;;27.97;24.37;;;;;;;;;;5072686;28;20491;-74
2022/07/22 03:53:27;;;;;;;27.07;23.80;;;;;;;;;;5072384;28;20471;-74
2022/07/22 03:55:55;;;;;;;27.27;23.87;;;;;;;;;;5072654;28;20455;-74
2022/07/22 03:58:23;;;;;;;27.27;23.30;;;;;;;;;;5072540;28;20443;-74
2022/07/22 04:00:50;;;;;;;27.03;23.53;;;;;;;;;;5072745;28;20444;-74
2022/07/22 04:03:17;;;;;;;27.20;22.80;;;;;;;;;;5072392;28;20885;-74
2022/07/22 04:05:44;;;;;;;30.47;22.10;;;;;;;;;;5072397;28;20460;-74
2022/07/22 04:08:11;;;;;;;25.97;21.90;;;;;;;;;;5072482;28;20455;-74
2022/07/22 04:10:39;;;;;;;23.40;20.07;;;;;;;;;;5072417;28;20518;-74
2022/07/22 04:13:07;;;;;;;24.10;20.70;;;;;;;;;;5075775;28;20479;-74
2022/07/22 04:15:35;;;;;;;28.70;19.43;;;;;;;;;;5075906;28;20456;-74
2022/07/22 04:18:02;;;;;;;20.20;18.20;;;;;;;;;;5076144;28;20463;-74
2022/07/22 04:20:29;;;;;;;21.07;18.97;;;;;;;;;;5076101;28;20459;-74
2022/07/22 04:22:56;;;;;;;21.53;17.43;;;;;;;;;;5075904;28;20467;-74
2022/07/22 04:25:23;;;;;;;18.93;17.10;;;;;;;;;;5075776;28;20448;-74
2022/07/22 04:27:52;;;;;;;22.47;19.90;;;;;;;;;;5075986;28;20814;-74
2022/07/22 04:30:20;;;;;;;21.57;18.90;;;;;;;;;;5075779;28;20953;-74
2022/07/22 04:32:47;;;;;;;21.20;18.73;;;;;;;;;;5075565;28;20495;-74
2022/07/22 04:35:14;;;;;;;20.30;18.30;;;;;;;;;;5075487;28;20459;-74
2022/07/22 04:37:42;;;;;;;21.60;18.27;;;;;;;;;;5075667;28;20456;-74
2022/07/22 04:40:09;;;;;;;18.93;17.00;;;;;;;;;;5075644;28;20447;-74
2022/07/22 04:42:36;;;;;;;21.47;16.50;;;;;;;;;;5075612;28;20483;-74
2022/07/22 04:45:04;;;;;;;19.60;16.77;;;;;;;;;;5075350;28;20462;-73
2022/07/22 04:47:32;;;;;;;19.30;17.20;;;;;;;;;;5075628;28;20448;-74
2022/07/22 04:49:59;;;;;;;19.30;17.20;;;;;;;;;;5075661;28;20451;-74
2022/07/22 04:52:26;;;;;;;18.50;16.50;;;;;;;;;;5075396;28;20528;-74
2022/07/22 04:54:53;;;;;;;18.00;16.10;;;;;;;;;;5075381;28;20452;-74
2022/07/22 04:57:20;;;;;;;20.30;18.10;;;;;;;;;;5075606;28;20467;-75
2022/07/22 04:59:48;;;;;;;19.50;16.27;;;;;;;;;;5075909;28;20452;-75
2022/07/22 05:02:15;;;;;;;17.97;16.13;;;;;;;;;;5075443;28;20468;-75
2022/07/22 05:04:43;;;;;;;17.80;15.73;;;;;;;;;;5075380;28;20867;-75
2022/07/22 05:07:10;;;;;;;19.33;17.07;;;;;;;;;;5075258;28;20451;-75
2022/07/22 05:09:37;;;;;;;17.43;15.83;;;;;;;;;;5075409;28;20926;-75
2022/07/22 05:12:06;;;;;;;18.37;16.63;;;;;;;;;;5086780;28;20503;-75
2022/07/22 05:14:33;;;;;;;17.37;15.77;;;;;;;;;;5095343;28;20470;-75
2022/07/22 05:17:00;;;;;;;16.60;15.20;;;;;;;;;;5095113;28;20454;-75
2022/07/22 05:19:27;;;;;;;17.40;15.90;;;;;;;;;;5095233;28;20538;-76
2022/07/22 05:21:55;;;;;;;15.37;13.83;;;;;;;;;;5095039;28;20473;-75
2022/07/22 05:24:22;;;;;;;21.90;15.07;;;;;;;;;;5093306;28;20466;-75
2022/07/22 05:26:49;;;;;;;15.70;14.33;;;;;;;;;;5095223;28;20446;-75
2022/07/22 05:29:16;;;;;;;17.03;15.33;;;;;;;;;;5094995;28;20447;-75
2022/07/22 05:31:43;;;;;;;18.40;16.60;;;;;;;;;;5094446;28;20486;-75
2022/07/22 05:34:11;;;;;;;17.37;15.60;;;;;;;;;;5094944;28;20458;-75
2022/07/22 05:36:38;;;;;;;16.23;14.83;;;;;;;;;;5095128;28;20451;-75
2022/07/22 05:39:06;;;;;;;16.40;14.70;;;;;;;;;;5095486;28;20446;-75
2022/07/22 05:41:34;;;;;;;14.10;12.80;;;;;;;;;;5094711;28;20802;-75
2022/07/22 05:44:01;;;;;;;17.37;15.07;;;;;;;;;;5094306;28;20878;-75
2022/07/22 05:46:28;;;;;;;17.50;15.90;;;;;;;;;;5094454;28;20462;-75
2022/07/22 05:48:55;;;;;;;17.50;15.90;;;;;;;;;;5094447;28;20458;-75
2022/07/22 05:51:22;;;;;;;16.80;15.33;;;;;;;;;;5094141;28;20668;-75
2022/07/22 05:53:49;;;;;;;15.30;14.10;;;;;;;;;;5094219;28;20960;-75
2022/07/22 05:56:18;;;;;;;15.80;14.60;;;;;;;;;;5094252;28;20458;-75
2022/07/22 05:58:45;;;;;;;17.00;15.30;;;;;;;;;;5094349;28;20445;-75
2022/07/22 06:01:12;;;;;;;16.00;14.50;;;;;;;;;;5094099;28;20455;-75
2022/07/22 06:03:41;;;;;;;15.47;13.80;;;;;;;;;;5094204;28;20462;-75
2022/07/22 06:06:09;;;;;;;15.90;14.50;;;;;;;;;;5093931;28;20474;-75
2022/07/22 06:08:36;;;;;;;14.17;12.97;;;;;;;;;;5094248;28;20445;-75
2022/07/22 06:11:04;;;;;;;14.07;12.60;;;;;;;;;;5094064;28;21002;-76
2022/07/22 06:13:32;;;;;;;14.97;13.60;;;;;;;;;;5093567;28;20494;-75
2022/07/22 06:15:59;;;;;;;13.90;12.80;;;;;;;;;;5093966;28;20457;-75
2022/07/22 06:18:26;;;;;;;14.17;13.07;;;;;;;;;;5093909;28;20460;-74
2022/07/22 06:20:54;;;;;;;13.50;12.10;;;;;;;;;;5093989;28;20826;-75
2022/07/22 06:23:21;;;;;;;14.60;13.30;;;;;;;;;;5093603;28;20461;-74
2022/07/22 06:25:48;;;;;;;13.27;12.17;;;;;;;;;;5093663;28;20446;-75
2022/07/22 06:28:15;;;;;;;12.40;11.20;;;;;;;;;;5093740;28;20796;-75
2022/07/22 06:30:43;;;;;;;12.07;11.03;;;;;;;;;;5093904;28;20688;-75
2022/07/22 06:33:11;;;;;;;11.60;10.70;;;;;;;;;;5093019;28;20493;-75
2022/07/22 06:35:40;;;;;;;11.57;10.47;;;;;;;;;;5093514;28;20561;-73
2022/07/22 06:38:08;;;;;;;11.70;10.80;;;;;;;;;;5093587;28;20623;-73
2022/07/22 06:40:35;;;;;;;11.73;10.73;;;;;;;;;;5093515;28;20211;-73
2022/07/22 06:43:02;;;;;;;13.00;11.90;;;;;;;;;;5093195;28;20243;-73
2022/07/22 06:45:29;;;;;;;12.53;11.40;;;;;;;;;;5093112;28;20207;-73
2022/07/22 06:47:58;;;;;;;11.80;10.90;;;;;;;;;;5093547;28;20215;-73
2022/07/22 06:50:25;;;;;;;12.87;11.67;;;;;;;;;;5093545;28;20629;-73
2022/07/22 06:52:52;;;;;;;13.77;12.57;;;;;;;;;;5093578;28;20243;-73
2022/07/22 06:55:19;;;;;;;13.07;12.00;;;;;;;;;;5093216;28;20465;-73
2022/07/22 06:57:46;;;;;;;13.17;11.97;;;;;;;;;;5093319;28;20450;-73
2022/07/22 07:00:14;;;;;;;13.17;11.90;;;;;;;;;;5093368;28;20586;-73
2022/07/22 07:02:41;;;;;;;11.63;10.83;;;;;;;;;;5093405;28;20477;-74
2022/07/22 07:05:10;;;;;;;13.43;12.20;;;;;;;;;;5093048;28;20464;-73
2022/07/22 07:07:37;;;;;;;12.53;11.40;;;;;;;;;;5093447;28;20936;-73
2022/07/22 07:10:05;;;;;;;13.20;12.00;;;;;;;;;;5093278;28;20454;-73
2022/07/22 07:12:32;;;;;;;12.17;11.07;;;;;;;;;;5093004;28;20501;-73
2022/07/22 07:14:59;;;;;;;12.00;11.00;;;;;;;;;;5093043;28;20935;-73
2022/07/22 07:17:26;;;;;;;13.43;12.33;;;;;;;;;;5093132;28;20456;-73
2022/07/22 07:19:53;;;;;;;14.37;13.07;;;;;;;;;;5093313;28;20450;-75
2022/07/22 07:22:21;;;;;;;14.00;12.70;;;;;;;;;;5093116;28;20473;-75
2022/07/22 07:24:49;;;;;;;13.13;11.37;;;;;;;;;;5093068;28;20457;-76
2022/07/22 07:27:16;;;;;;;13.77;12.63;;;;;;;;;;5093045;28;20462;-76
2022/07/22 07:29:43;;;;;;;12.50;11.23;;;;;;;;;;5093184;28;20458;-75
2022/07/22 07:32:10;;;;;;;13.10;12.10;;;;;;;;;;5092554;28;20481;-76
2022/07/22 07:34:38;;;;;;;12.90;11.90;;;;;;;;;;5093016;28;20453;-76
2022/07/22 07:37:05;;;;;;;12.33;11.17;;;;;;;;;;5092960;28;20548;-76
2022/07/22 07:39:33;;;;;;;12.17;11.17;;;;;;;;;;5093023;28;20454;-76
2022/07/22 07:42:01;;;;;;;10.60;9.70;;;;;;;;;;5092828;28;20473;-75
2022/07/22 07:44:28;;;;;;;11.43;10.43;;;;;;;;;;5092910;28;20458;-76
2022/07/22 07:46:55;;;;;;;11.83;10.73;;;;;;;;;;5094632;28;20457;-75
2022/07/22 07:49:22;;;;;;;12.00;10.80;;;;;;;;;;5097023;28;20962;-75
2022/07/22 07:51:49;;;;;;;11.60;10.70;;;;;;;;;;5096927;28;20472;-75
2022/07/22 07:54:16;;;;;;;11.70;10.80;;;;;;;;;;5096816;28;20946;-76
2022/07/22 07:56:44;;;;;;;12.80;11.70;;;;;;;;;;5097068;28;20858;-75
2022/07/22 07:59:12;;;;;;;12.30;11.20;;;;;;;;;;5096783;28;20465;-75
2022/07/22 08:01:39;;;;;;;16.13;11.80;;;;;;;;;;5096929;28;20477;-76
2022/07/22 08:04:06;;;;;;;11.33;10.33;;;;;;;;;;5096549;28;20453;-75
2022/07/22 08:06:33;;;;;;;12.17;10.97;;;;;;;;;;5096532;28;20461;-76
2022/07/22 08:09:00;;;;;;;11.40;10.47;;;;;;;;;;5096782;28;20458;-75
2022/07/22 08:11:27;;;;;;;11.77;10.77;;;;;;;;;;5096494;28;20450;-75
2022/07/22 08:13:56;;;;;;;11.10;10.30;;;;;;;;;;5096325;28;20556;-76
2022/07/22 08:16:23;;;;;;;12.17;10.77;;;;;;;;;;5096421;28;20453;-75
2022/07/22 08:18:50;;;;;;;11.90;10.97;;;;;;;;;;5096478;28;20445;-75
2022/07/22 08:21:17;;;;;;;12.80;11.57;;;;;;;;;;5096129;28;20453;-75
2022/07/22 08:23:44;;;;;;;11.53;10.33;;;;;;;;;;5096220;28;20472;-75
2022/07/22 08:26:11;;;;;;;13.20;12.10;;;;;;;;;;5096345;28;20450;-75
2022/07/22 08:28:38;;;;;;;13.70;12.37;;;;;;;;;;5096163;28;20449;-75
2022/07/22 08:31:07;;;;;;;12.53;11.07;;;;;;;;;;5096315;28;20465;-75
2022/07/22 08:33:34;;;;;;;11.80;10.70;;;;;;;;;;5095591;28;20496;-75
2022/07/22 08:36:02;;;;;;;11.23;10.23;;;;;;;;;;5096147;28;20528;-75
2022/07/22 08:38:29;;;;;;;11.50;10.40;;;;;;;;;;5096201;28;20477;-75
2022/07/22 08:40:57;;;;;;;12.63;11.47;;;;;;;;;;5095986;28;20454;-75
2022/07/22 08:43:24;;;;;;;10.03;9.13;;;;;;;;;;5095717;28;20482;-75
2022/07/22 08:45:51;;;;;;;12.83;10.50;;;;;;;;;;5095798;28;20457;-75
2022/07/22 08:48:19;;;;;;;12.33;11.20;;;;;;;;;;5095766;28;20453;-75
2022/07/22 08:50:46;;;;;;;11.30;10.20;;;;;;;;;;5095814;28;20446;-75
2022/07/22 08:53:14;;;;;;;12.20;11.10;;;;;;;;;;5095545;28;20485;-75
2022/07/22 08:55:42;;;;;;;10.70;9.77;;;;;;;;;;5095701;28;20803;-75
2022/07/22 08:58:09;;;;;;;10.10;9.20;;;;;;;;;;5094394;28;20446;-75
2022/07/22 09:00:37;;;;;;;11.53;10.43;;;;;;;;;;5095632;28;20450;-75
2022/07/22 09:03:17;;;;;;;13.00;9.53;;;;;;;;;;5095448;28;20474;-75
2022/07/22 09:05:46;;;;;;;10.73;9.80;;;;;;;;;;5095408;28;20527;-76
2022/07/22 09:08:13;;;;;;;9.60;8.70;;;;;;;;;;5095546;28;20450;-75
2022/07/22 09:10:40;;;;;;;12.07;10.93;;;;;;;;;;5095804;28;20939;-75
2022/07/22 09:13:08;;;;;;;12.67;11.57;;;;;;;;;;5095325;28;20522;-75
2022/07/22 09:15:36;;;;;;;11.97;10.93;;;;;;;;;;5095277;28;20481;-75
2022/07/22 09:18:04;;;;;;;11.10;10.13;;;;;;;;;;5095459;28;20484;-75
2022/07/22 09:20:31;;;;;;;10.77;9.73;;;;;;;;;;5095275;28;20450;-75
2022/07/22 09:23:00;;;;;;;11.37;10.30;;;;;;;;;;5095441;28;20462;-75
2022/07/22 09:25:28;;;;;;;10.00;9.20;;;;;;;;;;5094915;28;20866;-75
2022/07/22 09:27:56;;;;;;;10.00;9.20;;;;;;;;;;5095039;28;20446;-75
2022/07/22 09:30:24;;;;;;;10.77;9.70;;;;;;;;;;5094844;28;20461;-75
2022/07/22 09:32:52;;;;;;;11.30;10.10;;;;;;;;;;5094474;28;20493;-75
2022/07/22 09:35:20;;;;;;;10.53;9.60;;;;;;;;;;5094801;28;20458;-75
2022/07/22 09:37:51;;;;;;;10.50;9.70;;;;;;;;;;5095022;28;20485;-75
2022/07/22 09:40:20;;;;;;;10.37;9.50;;;;;;;;;;5094818;28;20442;-75
2022/07/22 09:42:49;;;;;;;9.90;9.00;;;;;;;;;;5094549;28;20474;-75
2022/07/22 09:45:16;;;;;;;12.80;10.03;;;;;;;;;;5090105;28;20963;-76
2022/07/22 09:47:44;;;;;;;10.93;10.03;;;;;;;;;;5090185;28;21156;-75
2022/07/22 09:50:18;;;;;;;14.20;10.00;;;;;;;;;;5092884;28;20450;-76
2022/07/22 09:52:46;;;;;;;11.20;10.10;;;;;;;;;;5094255;28;20749;-76
2022/07/22 09:55:15;;;;;;;13.80;10.00;;;;;;;;;;5094015;28;20457;-75
2022/07/22 09:57:43;;;;;;;10.27;9.27;;;;;;;;;;5094499;28;20463;-75
2022/07/22 10:00:11;;;;;;;10.97;9.80;;;;;;;;;;5094317;28;20951;-75
2022/07/22 10:02:41;;;;;;;12.17;8.80;;;;;;;;;;5094362;28;20471;-75
2022/07/22 10:05:09;;;;;;;10.47;9.33;;;;;;;;;;5094407;28;20446;-75
2022/07/22 10:07:38;;;;;;;10.73;9.43;;;;;;;;;;5094193;28;20450;-75
2022/07/22 10:10:05;;;;;;;10.30;9.50;;;;;;;;;;5094005;28;20450;-75
2022/07/22 10:12:33;;;;;;;10.47;9.57;;;;;;;;;;5094045;28;20477;-75
2022/07/22 10:15:01;;;;;;;15.83;10.20;;;;;;;;;;5094020;28;20465;-75
2022/07/22 10:17:29;;;;;;;11.03;9.00;;;;;;;;;;5094240;28;20453;-75
2022/07/22 10:19:56;;;;;;;9.27;8.57;;;;;;;;;;5094277;28;20462;-74
2022/07/22 10:22:42;;;;;;;10.97;9.20;;;;;;;;;;5093918;28;20469;-74
2022/07/22 10:25:09;;;;;;;9.70;8.90;;;;;;;;;;5093803;28;20454;-75
2022/07/22 10:27:45;;;;;;;11.63;10.43;;;;;;;;;;5094032;28;20818;-75
2022/07/22 10:30:14;;;;;;;10.30;9.40;;;;;;;;;;5094084;28;20450;-75
2022/07/22 10:32:41;;;;;;;9.13;8.33;;;;;;;;;;5093742;28;20486;-75
2022/07/22 10:35:22;;;;;;;10.00;9.30;;;;;;;;;;5093709;28;20454;-75
2022/07/22 10:37:50;;;;;;;11.73;9.40;;;;;;;;;;5093709;28;20482;-74
2022/07/22 10:40:19;;;;;;;9.70;8.70;;;;;;;;;;5093594;28;20461;-74
2022/07/22 10:43:10;;;;;;;9.77;8.87;;;;;;;;;;5093545;28;20539;-74
2022/07/22 10:45:40;;;;;;;12.57;8.77;;;;;;;;;;5093508;28;20816;-75
2022/07/22 10:48:09;;;;;;;11.37;10.23;;;;;;;;;;5093596;28;20958;-74
2022/07/22 10:50:56;;;;;;;9.73;8.50;;;;;;;;;;5093618;28;20488;-75
2022/07/22 10:53:24;;;;;;;8.77;7.97;;;;;;;;;;5093828;28;20494;-75
2022/07/22 10:56:00;;;;;;;8.50;7.70;;;;;;;;;;5093427;28;20450;-75
2022/07/22 10:58:43;;;;;;;8.40;7.70;;;;;;;;;;5093474;28;20457;-75
2022/07/22 11:01:12;;;;;;;9.10;8.20;;;;;;;;;;5093349;28;20457;-74
2022/07/22 11:03:41;;;;;;;10.67;8.90;;;;;;;;;;5093189;28;20458;-75
2022/07/22 11:06:15;;;;;;;9.30;8.30;;;;;;;;;;5093472;28;20450;-75
2022/07/22 11:08:42;;;;;;;9.13;8.23;;;;;;;;;;5093442;28;20457;-75
2022/07/22 11:11:09;;;;;;;11.43;7.20;;;;;;;;;;5093247;28;20446;-75
2022/07/22 11:13:37;;;;;;;9.07;8.17;;;;;;;;;;5093064;28;20496;-75
2022/07/22 11:16:22;;;;;;;8.43;7.63;;;;;;;;;;5093271;28;20882;-74
2022/07/22 11:18:51;;;;;;;8.27;7.57;;;;;;;;;;5093396;28;20493;-75
2022/07/22 11:21:18;;;;;;;8.20;7.40;;;;;;;;;;5092383;28;20461;-75
2022/07/22 11:23:46;;;;;;;8.53;7.47;;;;;;;;;;5093052;28;20480;-75
2022/07/22 11:26:15;;;;;;;8.20;7.30;;;;;;;;;;5093150;28;20442;-75
2022/07/22 11:28:42;;;;;;;7.47;6.87;;;;;;;;;;5093107;28;20485;-75
2022/07/22 11:31:09;;;;;;;7.93;7.33;;;;;;;;;;5093272;28;20454;-75
2022/07/22 11:33:38;;;;;;;11.47;6.83;;;;;;;;;;5092367;28;20501;-75
2022/07/22 11:36:05;;;;;;;8.10;6.30;;;;;;;;;;5093059;28;20454;-75
2022/07/22 11:38:47;;;;;;;7.30;6.70;;;;;;;;;;5092955;28;20462;-74
2022/07/22 11:41:15;;;;;;;8.10;7.40;;;;;;;;;;5092943;28;20454;-74
2022/07/22 11:43:43;;;;;;;9.03;8.00;;;;;;;;;;5092794;28;20947;-75
2022/07/22 11:46:10;;;;;;;8.10;7.40;;;;;;;;;;5093020;28;20453;-75
2022/07/22 11:48:38;;;;;;;8.70;7.83;;;;;;;;;;5093054;28;20450;-75
2022/07/22 11:51:06;;;;;;;8.43;7.63;;;;;;;;;;5093068;28;20454;-75
2022/07/22 11:53:33;;;;;;;7.77;7.07;;;;;;;;;;5092595;28;20486;-75
2022/07/22 11:56:01;;;;;;;9.00;6.33;;;;;;;;;;5092936;28;20453;-75
2022/07/22 11:58:38;;;;;;;6.43;5.93;;;;;;;;;;5092781;28;20458;-75
2022/07/22 12:01:06;;;;;;;7.90;7.30;;;;;;;;;;5092977;28;20455;-74
2022/07/22 12:03:34;;;;;;;8.00;7.30;;;;;;;;;;5092558;28;20555;-75
2022/07/22 12:06:03;;;;;;;8.17;7.37;;;;;;;;;;5092774;28;20454;-75
2022/07/22 12:08:30;;;;;;;8.83;7.47;;;;;;;;;;5092565;28;20461;-75
2022/07/22 12:10:58;;;;;;;11.20;7.20;;;;;;;;;;5092913;28;20461;-75
2022/07/22 12:13:30;;;;;;;7.60;7.00;;;;;;;;;;5092527;28;20976;-75
2022/07/22 12:15:57;;;;;;;8.27;7.47;;;;;;;;;;5092782;28;20454;-74
2022/07/22 12:18:25;;;;;;;11.53;8.50;;;;;;;;;;5092694;28;20878;-74
2022/07/22 12:20:55;;;;;;;7.60;6.83;;;;;;;;;;5092834;28;20959;-74
2022/07/22 12:23:24;;;;;;;7.63;6.83;;;;;;;;;;5092393;28;20481;-75
2022/07/22 12:25:55;;;;;;;6.90;6.30;;;;;;;;;;5092358;28;20447;-74
2022/07/22 12:28:22;;;;;;;8.10;7.37;;;;;;;;;;5092361;28;20451;-74
2022/07/22 12:30:49;;;;;;;8.20;7.30;;;;;;;;;;5092609;28;20827;-75
2022/07/22 12:33:16;;;;;;;11.63;10.53;;;;;;;;;;5093891;28;21002;-75
2022/07/22 12:35:44;;;;;;;8.37;7.50;;;;;;;;;;5095881;28;20454;-75
2022/07/22 12:38:11;;;;;;;8.30;7.07;;;;;;;;;;5096105;28;20823;-74
2022/07/22 12:40:39;;;;;;;44.90;8.40;;;;;;;;;;5096109;28;20446;-75
2022/07/22 12:43:07;;;;;;;8.67;7.83;;;;;;;;;;5095864;28;20478;-74
2022/07/22 12:45:36;;;;;;;11.40;7.50;;;;;;;;;;5095701;28;20443;-75
2022/07/22 12:48:09;;;;;;;9.57;8.70;;;;;;;;;;5095765;28;20451;-75
2022/07/22 12:50:37;;;;;;;8.47;7.67;;;;;;;;;;5095728;28;20454;-75
2022/07/22 12:53:05;;;;;;;14.97;8.70;;;;;;;;;;5095788;28;21006;-75
2022/07/22 12:55:33;;;;;;;10.80;8.83;;;;;;;;;;5095626;28;21007;-75
2022/07/22 12:58:02;;;;;;;8.60;7.80;;;;;;;;;;5095785;28;20451;-75
2022/07/22 13:00:30;;;;;;;9.90;8.27;;;;;;;;;;5095646;28;20927;-75
2022/07/22 13:02:57;;;;;;;9.33;8.40;;;;;;;;;;5095476;28;20474;-75
2022/07/22 13:05:25;;;;;;;10.57;9.30;;;;;;;;;;5095344;28;20837;-75
2022/07/22 13:07:53;;;;;;;9.83;8.87;;;;;;;;;;5095582;28;20553;-75
2022/07/22 13:10:21;;;;;;;9.27;8.37;;;;;;;;;;5095437;28;20489;-75
2022/07/22 13:12:48;;;;;;;10.10;9.20;;;;;;;;;;5095218;28;20502;-75
2022/07/22 13:15:16;;;;;;;8.63;7.73;;;;;;;;;;5095031;28;20482;-75
2022/07/22 13:17:44;;;;;;;10.03;8.20;;;;;;;;;;5095437;28;20733;-74
2022/07/22 13:20:12;;;;;;;11.63;8.83;;;;;;;;;;5095389;28;20855;-75
2022/07/22 13:22:39;;;;;;;9.57;8.70;;;;;;;;;;5095183;28;20524;-75
2022/07/22 13:25:07;;;;;;;9.10;8.20;;;;;;;;;;5094900;28;20454;-75
2022/07/22 13:27:34;;;;;;;8.80;7.50;;;;;;;;;;5094934;28;20485;-74
2022/07/22 13:30:01;;;;;;;9.20;8.30;;;;;;;;;;5095241;28;20819;-75
2022/07/22 13:32:29;;;;;;;10.53;8.13;;;;;;;;;;5094390;28;20475;-75
2022/07/22 13:34:57;;;;;;;8.57;7.83;;;;;;;;;;5094726;28;20490;-75
2022/07/22 13:37:24;;;;;;;8.90;8.10;;;;;;;;;;5094954;28;20443;-75
2022/07/22 13:39:51;;;;;;;8.50;7.40;;;;;;;;;;5094989;28;20451;-74
2022/07/22 13:42:19;;;;;;;9.40;8.60;;;;;;;;;;5094493;28;20529;-74
2022/07/22 13:44:46;;;;;;;9.30;8.40;;;;;;;;;;5093842;28;20499;-75
2022/07/22 13:47:13;;;;;;;11.27;7.77;;;;;;;;;;5094822;28;20454;-74
2022/07/22 13:49:44;;;;;;;9.33;8.47;;;;;;;;;;5091905;28;20458;-75
2022/07/22 13:52:11;;;;;;;9.03;8.17;;;;;;;;;;5092714;28;20498;-75
2022/07/22 13:54:38;;;;;;;9.93;8.00;;;;;;;;;;5093032;28;21034;-75
2022/07/22 13:57:05;;;;;;;9.07;7.73;;;;;;;;;;5093169;28;20450;-75
2022/07/22 13:59:33;;;;;;;9.73;8.23;;;;;;;;;;5093032;28;20462;-74
2022/07/22 14:02:01;;;;;;;9.10;8.20;;;;;;;;;;5092933;28;20474;-75
2022/07/22 14:04:28;;;;;;;9.97;7.37;;;;;;;;;;5092910;28;20490;-75
2022/07/22 14:06:56;;;;;;;8.70;7.37;;;;;;;;;;5093101;28;20452;-75
2022/07/22 14:09:24;;;;;;;8.60;7.83;;;;;;;;;;5092715;28;20451;-75
2022/07/22 14:11:51;;;;;;;9.63;8.43;;;;;;;;;;5092843;28;20474;-75
2022/07/22 14:14:18;;;;;;;9.20;8.20;;;;;;;;;;5092633;28;20486;-75
2022/07/22 14:16:45;;;;;;;9.33;8.30;;;;;;;;;;5092844;28;20454;-75
2022/07/22 14:19:13;;;;;;;10.03;9.07;;;;;;;;;;5092515;28;20462;-75
2022/07/22 14:21:41;;;;;;;9.73;8.57;;;;;;;;;;5092449;28;20486;-75
2022/07/22 14:24:10;;;;;;;10.57;9.67;;;;;;;;;;5092475;28;20457;-75
2022/07/22 14:26:38;;;;;;;9.07;8.07;;;;;;;;;;5092354;28;20498;-75
2022/07/22 14:29:05;;;;;;;11.20;8.40;;;;;;;;;;5092581;28;20458;-75